Tiempo atmosférico en la estación meteorológica de Benavente, Zamora (715 m.)



Fecha
DESCASC
Temp. máxima en grados centígrados (hora)
DESCASC
Temp. mínima en grados centígrados (hora)
DESCASC
Temp. media en grados centígrados
DESCASC
Racha de viento máxima en m/sg (hora)
DESCASC
Velocidad máxima media en intervalos de 10 minutos(hora)
DESCASC
Precipitaciones diarias en mm
DESCASC
Precipitaciones de 00:00 a 06:00 en mm
DESCASC
Precipitaciones de 06:00 a 12:00 en mm
DESCASC
Precipitaciones de 12:00 a 18:00 en mm
DESCASC
Precipitaciones de 18:00 a 24:00 en mm
DESCASC
08-12-2019 8.3 (16:50) 1.4 (23:59) 4.9 4.17 (20:30) 1.67 (08:10) 1.6 0 0 1.6 0
07-12-2019 8.8 (15:00) 1.4 (05:10) 5.1 4.72 (06:00) 1.94 (14:30) 0 0 0 0 0
06-12-2019 11 (16:00) -0.1 (07:10) 5.4 4.72 (03:50) 2.5 (00:50) 0 0 0 0 0
05-12-2019 9.8 (15:40) -1.1 (-00:0) 4.4 10 (12:50) 5.28 (12:50) 0 0 0 0 0
04-12-2019 11.3 (15:50) -1.1 (04:10) 5.1 7.5 (10:50) 3.89 (14:10) 0 0 0 0 0
03-12-2019 6.6 (13:20) -1.5 (-00:0) 2.5 9.44 (13:40) 5 (13:50) 0 0 0 0 0
02-12-2019 11.1 (14:50) 0.9 (00:00) 6 12.78 (17:50) 6.39 (17:50) 0 0 0 0 0
01-12-2019 9 (12:50) 4.8 (00:00) 6.9 9.72 (14:40) 5 (14:40) 2.2 0.6 1.6 0 0
30-11-2019 12.7 (13:00) 5.9 (00:00) 9.3 12.22 (13:40) 5.28 (13:10) 9.6 0.4 9 0.2 0
29-11-2019 15.9 (16:00) 8.5 (00:00) 12.2 7.5 (16:50) 3.89 (16:20) 0.2 0 0 0 0.2
28-11-2019 13.7 (14:40) 9.2 (00:00) 11.4 13.89 (15:10) 6.39 (11:20) 1 0.2 0 0 0.8
27-11-2019 10.4 (13:50) 7.7 (00:00) 9 11.11 (19:30) 6.11 (18:10) 0.8 0 0 0.4 0.4
26-11-2019 14.7 (16:20) 9.7 (00:00) 12.2 15.56 (17:10) 7.22 (18:10) 4 0 1 2 1
25-11-2019 14.2 (14:10) 9.1 (08:30) 11.7 10.56 (14:20) 5 (14:20) 0 0 0 0 0
24-11-2019 9.6 (16:20) 3.2 (00:00) 6.4 8.89 (14:20) 4.72 (15:40) 2 0 0 0 2
23-11-2019 11.7 (16:10) 4.5 (00:00) 8.1 12.5 (11:30) 6.11 (11:40) 0.4 0.4 0 0 0
22-11-2019 13 (15:00) 5.6 (00:00) 9.3 18.33 (13:20) 8.61 (13:20) 5.4 0.4 1.4 2.6 1
21-11-2019 11.7 (15:50) 5.5 (00:00) 8.6 9.72 (14:40) 4.72 (14:50) 0 0 0 0 0
20-11-2019 7 (17:10) 5.2 (06:20) 6.1 7.5 (13:10) 3.89 (16:00) 4.6 0.2 2.6 1.4 0.4
19-11-2019 8 (15:20) -2 (-00:0) 3 4.17 (02:40) 2.22 (09:20) 0 0 0 0 0
18-11-2019 11.6 (15:40) 0.7 (00:00) 6.2 10.28 (14:30) 5.28 (11:30) 0 0 0 0 0
17-11-2019 11.9 (15:40) 3 (00:00) 7.4 11.67 (16:10) 5.56 (16:00) 0.8 0 0.6 0.2 0
16-11-2019 10.3 (15:30) -1.2 (-00:0) 4.6 11.39 (13:40) 5 (13:40) 0 0 0 0 0
15-11-2019 8.8 (14:10) 1.9 (00:00) 5.4 13.89 (12:50) 6.11 (12:50) 3.8 1.4 1.4 0.8 0.2
14-11-2019 8.3 (00:00) 2.1 (00:00) 5.2 15.83 (03:50) 7.78 (03:50) 1 0 0 0.4 0.6
13-11-2019 16.2 (15:40) 7.5 (00:00) 11.9 13.89 (23:59) 6.67 (23:59) 5 2.2 2 0.8 0
12-11-2019 11.4 (14:00) 4.7 (00:00) 8 10.83 (17:50) 5.28 (16:50) 1.2 0 0 0 1.2
11-11-2019 15.3 (14:30) 4.6 (02:00) 10 11.11 (12:50) 5.83 (12:50) 0 0 0 0 0

Gráficas

Temp. máximas Temp. mínimas Temp. medias Precipitaciones Rachas de viento máximas Velocidades máximas media en intervalos de 10 minutos

Datos horarios

Fecha y hora oficial Temperatura (ºC) Velocidad del viento (km/h) Dirección del viento Racha (km/h) Dirección de racha Precipitación (mm) Presión (hPa) Tendencia (hPa) Humedad (%)
2019-12-10 23:00:00 3 2 Noroeste 12 Este 0 941.3 -1 94
2019-12-10 22:00:00 3.4 3 Nordeste 14 Este 0 941.6 -1.2 93
2019-12-10 21:00:00 3.7 3 Este 15 Este 0 941.9 -0.6 92
2019-12-10 20:00:00 3.8 4 Este 6 Este 0 942.3 -0.4 91
2019-12-10 19:00:00 4.2 0 Calma 10 Sur 0 942.8 -0.3 91
2019-12-10 18:00:00 4.4 5 Sur 13 Sur 0 942.5 -1.1 91
2019-12-10 17:00:00 4.5 5 Sur 15 Sur 0 942.7 -2 88
2019-12-10 16:00:00 4.5 5 Sur 15 Sudeste 0 943.1 -2.4 86
2019-12-10 15:00:00 4.8 5 Sudeste 12 Sudeste 0 943.6 -2.9 82
2019-12-10 14:00:00 4.4 4 Sur 13 Sudeste 0 944.7 -2.3 83
2019-12-10 13:00:00 3.4 3 Sudeste 19 Este 0 945.5 -1.4 85
2019-12-10 12:00:00 2.7 2 Este 8 Sudeste 0 946.5 -0.5 89
2019-12-10 11:00:00 -0.3 0 Calma 8 Nordeste 0 947 0.2 94
2019-12-10 10:00:00 -1.4 5 Norte 8 Nordeste 0 946.9 0.2 94
2019-12-10 09:00:00 -2.2 3 Norte 7 Nordeste 0 947 0.1 95
2019-12-10 08:00:00 -2.5 4 Norte 8 Sudeste 0 946.8 -0.4 94
2019-12-10 07:00:00 -1.7 3 Norte 6 Noroeste 0 946.7 -1.1 93
2019-12-10 06:00:00 -1.3 4 Este 7 Nordeste 0 946.9 -0.8 93
2019-12-10 05:00:00 -1.4 4 Norte 8 Este 0 947.2 -0.7 93
2019-12-10 04:00:00 0.1 4 Norte 11 Norte 0 947.8 -0.4 93
2019-12-10 03:00:00 0.1 5 Noroeste 10 Noroeste 0 947.7 -0.3 93
2019-12-10 02:00:00 0.6 2 Sudeste 9 Oeste 0 947.9 -0.5 92
2019-12-10 01:00:00 1.3 5 Oeste 13 Noroeste 0 948.2 0.1 93
2019-12-10 00:00:00 0.8 5 Norte 8 Este 0 948 0 90
2019-12-09 23:00:00 2.5 3 Nordeste 18 Norte 0 948.4 0.5 87
2019-12-09 22:00:00 3.9 7 Norte 18 Noroeste 0 948.1 1 84
2019-12-09 21:00:00 3.1 4 Norte 9 Noroeste 0 948 1.4 88
2019-12-09 20:00:00 3.3 3 Norte 9 Nordeste 0 947.9 1.5 85
2019-12-09 19:00:00 4.9 3 Noroeste 10 Norte 0 947.1 1.1 82
2019-12-09 18:00:00 6.5 4 Norte 12 Noroeste 0 946.6 0.7 79
2019-12-09 17:00:00 8.1 3 Oeste 9 Oeste 0 946.4 0.6 75
2019-12-09 16:00:00 8.5 3 Oeste 10 Sudeste 0 946 -0.2 72
2019-12-09 15:00:00 7.8 5 Nordeste 19 Este 0 945.9 -0.6 73
2019-12-09 14:00:00 7.2 6 Nordeste 10 Nordeste 0 945.8 -0.5 78
2019-12-09 13:00:00 6 4 Noroeste 8 Nordeste 0 946.2 0.5 81
2019-12-09 12:00:00 3.7 3 Sudeste 15 Sudoeste 0 946.5 1.1 88
2019-12-09 11:00:00 1.8 4 Sudoeste 14 Sudoeste 0 946.3 0.8 93
2019-12-09 10:00:00 1.3 5 Oeste 16 Sur 0 945.7 0.5 95
2019-12-09 09:00:00 0.4 6 Sudoeste 13 Sur 0 945.4 0.5 95
2019-12-09 08:00:00 0.2 5 Sur 9 Sur 0 945.5 0.5 95
2019-12-09 07:00:00 1.1 3 Sudoeste 8 Oeste 0 945.2 0.4 95
2019-12-09 06:00:00 1.6 6 Sudoeste 10 Sudoeste 0 944.9 0.4 95
2019-12-09 05:00:00 1 3 Sudoeste 6 Sudeste 0 945 0.5 95
2019-12-09 04:00:00 0.8 4 Sur 8 Sur 0 944.8 0.1 95
2019-12-09 03:00:00 0.6 5 Sur 10 Sur 0 944.5 -0.1 95
2019-12-09 02:00:00 1 0 Calma 13 Sur 0 944.5 1 95
2019-12-09 01:00:00 0.7 0 Calma 4 Sudoeste 0 944.7 1.4 95
2019-12-09 00:00:00 1.4 0 Calma 5 Nordeste 0 944.6 1.6 94
2019-12-08 23:00:00 2.6 3 Norte 15 Este 0 943.5 0.9 94
2019-12-08 22:00:00 3.3 3 Sudeste 7 Este 0 943.3 1.5 94
2019-12-08 21:00:00 4.1 3 Norte 15 Nordeste 0 943 1.8 93
2019-12-08 20:00:00 5.8 6 Norte 10 Nordeste 0 942.6 1.7 93
2019-12-08 19:00:00 6.6 4 Norte 7 Noroeste 0 941.8 1 93
2019-12-08 18:00:00 8 3 Sudeste 10 Oeste 0 941.2 0.7 92
2019-12-08 17:00:00 8.3 4 Sudeste 8 Sur 0 940.9 0.1 92
2019-12-08 16:00:00 7.9 2 Sudoeste 8 Sur 0.2 940.8 -0.5 92
2019-12-08 15:00:00 7.2 6 Sur 10 Sur 0.4 940.5 -1.4 92
2019-12-08 14:00:00 6.5 5 Sur 9 Sur 0.2 940.8 -1 93
2019-12-08 13:00:00 5.7 5 Sur 12 Sur 0.8 941.3 0 93
2019-12-08 12:00:00 5.1 2 Oeste 6 Sur 0 941.9 0.7 94
2019-12-08 11:00:00 4 2 Sur 5 Sur 0 941.8 0.6 94
2019-12-08 10:00:00 3.3 3 Sur 9 Sudoeste 0 941.3 0.2 94
2019-12-08 09:00:00 2.9 4 Sur 12 Sur 0 941.2 0.2 95
2019-12-08 08:00:00 3.2 6 Sur 13 Este 0 941.2 -0.1 95
2019-12-08 07:00:00 3.1 2 Sudoeste 7 Sur 0 941.1 -0.4 95
2019-12-08 06:00:00 3.2 3 Sur 6 Sur 0 941 -0.5 95
2019-12-08 05:00:00 3.2 3 Noroeste 9 Este 0 941.3 -0.3 95
2019-12-08 04:00:00 3.2 3 Norte 8 Noroeste 0 941.5 -0.7 95
2019-12-08 03:00:00 2.8 3 Oeste 13 Noroeste 0 941.5 -0.7 95
2019-12-08 02:00:00 2.9 2 Sur 7 Sur 0 941.6 -0.4 94
2019-12-08 01:00:00 3.1 4 Noroeste 9 Noroeste 0 942.2 0.3 94
2019-12-08 00:00:00 3.3 3 Noroeste 7 Sudeste 0 942.2 0.9 94
2019-12-07 23:00:00 3.4 3 Sudeste 15 Este 0 942 0.5 94
2019-12-07 22:00:00 3.3 2 Sudoeste 12 Este 0 941.9 1 94
2019-12-07 21:00:00 4 3 Sur 8 Este 0 941.3 0.6 93
2019-12-07 20:00:00 4.4 2 Sudeste 13 Este 0 941.5 1.3 93
2019-12-07 19:00:00 4.7 3 Sur 12 Sur 0 940.9 0.7 93
2019-12-07 18:00:00 5.2 3 Sur 12 Sur 0 940.7 0.6 92
2019-12-07 17:00:00 6.1 6 Sur 12 Sudeste 0 940.2 -0.7 88
2019-12-07 16:00:00 7.9 5 Sur 13 Sudeste 0 940.2 -1.2 80
2019-12-07 15:00:00 8.8 6 Sur 16 Sur 0 940.1 -1.9 76
2019-12-07 14:00:00 6.4 5 Sur 12 Sur 0 940.9 -0.9 85
2019-12-07 13:00:00 4.9 4 Sur 8 Sur 0 941.4 0.1 92
2019-12-07 12:00:00 3.4 2 Nordeste 12 Norte 0 942 0.8 94
2019-12-07 11:00:00 2.4 4 Norte 15 Nordeste 0 941.8 0.9 94
2019-12-07 10:00:00 2 0 Calma 11 Norte 0 941.3 0.7 94
2019-12-07 09:00:00 1.6 5 Norte 13 Nordeste 0 941.2 0.9 94
2019-12-07 08:00:00 1.5 3 Nordeste 10 Norte 0 940.9 0.7 94
2019-12-07 07:00:00 2 4 Noroeste 8 Noroeste 0 940.6 0.4 94
2019-12-07 06:00:00 2.2 3 Noroeste 17 Nordeste 0 940.3 -0.3 93
2019-12-07 05:00:00 1.5 2 Norte 15 Noroeste 0 940.2 -0.5 91
2019-12-07 04:00:00 2.3 3 Noroeste 13 Nordeste 0 940.2 -0.7 91
2019-12-07 03:00:00 3.3 3 Sur 8 Noroeste 0 940.6 0.2 91
2019-12-07 02:00:00 3.7 5 Norte 9 Norte 0 940.7 0.1 92
2019-12-07 01:00:00 2.9 3 Noroeste 15 Nordeste 0 940.9 0.8 93
2019-12-07 00:00:00 2.4 2 Oeste 4 Sur 0 940.4 0.8 92
2019-12-06 23:00:00 2.4 0 Calma 4 Norte 0 940.6 1.1 90
2019-12-06 22:00:00 3.6 2 Sudeste 4 Sudeste 0 940.1 0.6 88
2019-12-06 21:00:00 4.8 2 Sudoeste 4 Sudoeste 0 939.6 0.8 86
2019-12-06 20:00:00 5.4 3 Sudoeste 6 Sur 0 939.5 0.7 85
2019-12-06 19:00:00 5.6 0 Calma 5 Sur 0 939.5 0.8 79
2019-12-06 18:00:00 8.5 4 Sur 7 Sur 0 938.8 -0.2 73
2019-12-06 17:00:00 9.8 3 Sudeste 7 Sudeste 0 938.8 -0.9 66
2019-12-06 16:00:00 10.9 2 Sudoeste 7 Noroeste 0 938.7 -1.9 61
2019-12-06 15:00:00 9.9 3 Sudoeste 7 Oeste 0 939 -1.9 64
2019-12-06 14:00:00 9.3 3 Noroeste 9 Noroeste 0 939.7 -1.6 67
2019-12-06 13:00:00 8.4 4 Noroeste 9 Noroeste 0 940.6 -0.3 69
2019-12-06 12:00:00 6.1 2 Noroeste 15 Norte 0 940.9 0.8 74
2019-12-06 11:00:00 4.7 4 Norte 10 Norte 0 941.3 1.6 80
2019-12-06 10:00:00 2 5 Norte 15 Norte 0 940.9 1.2 91
2019-12-06 09:00:00 0.6 5 Norte 15 Norte 0 940.1 0.7 92
2019-12-06 08:00:00 0.4 3 Norte 17 Noroeste 0 939.7 0.2 92
2019-12-06 07:00:00 0.3 3 Nordeste 12 Este 0 939.7 -0.1 91
2019-12-06 06:00:00 0.9 5 Noroeste 14 Nordeste 0 939.4 0 92
2019-12-06 05:00:00 1.1 5 Nordeste 17 Norte 0 939.5 0 90
2019-12-06 04:00:00 2.8 7 Norte 17 Norte 0 939.8 -0.4 87
2019-12-06 03:00:00 2.8 6 Nordeste 14 Norte 0 939.4 -0.7 88
2019-12-06 02:00:00 2.2 4 Norte 15 Norte 0 939.5 -0.5 87
2019-12-06 01:00:00 4.3 9 Norte 17 Norte 0 940.2 0.8 84
2019-12-06 00:00:00 4.5 8 Norte 20 Norte 0 940.1 0.6 85
2019-12-05 23:00:00 5.5 10 Norte 19 Norte 0 940 0.9 82
2019-12-05 22:00:00 6.1 9 Nordeste 24 Nordeste 0 939.4 0.8 82
2019-12-05 21:00:00 7.2 14 Nordeste 34 Norte 0 939.5 1.1 78
2019-12-05 20:00:00 7.4 13 Nordeste 29 Este 0 939.1 1.3 76
2019-12-05 19:00:00 7.5 12 Nordeste 27 Este 0 938.6 1.1 78
2019-12-05 18:00:00 8.3 10 Nordeste 23 Norte 0 938.4 0.9 74
2019-12-05 17:00:00 9.6 17 Nordeste 34 Nordeste 0 937.8 0 68
2019-12-05 16:00:00 9.8 13 Nordeste 29 Este 0 937.5 -0.7 69
2019-12-05 15:00:00 9.6 15 Este 30 Nordeste 0 937.5 -0.8 70
2019-12-05 14:00:00 9.5 18 Nordeste 34 Este 0 937.8 -0.5 69
2019-12-05 13:00:00 9 15 Este 36 Este 0 938.2 0.7 70
2019-12-05 12:00:00 7.4 11 Nordeste 19 Norte 0 938.3 1.8 75
2019-12-05 11:00:00 3.4 2 Norte 11 Norte 0 938.3 2.6 84
2019-12-05 10:00:00 1.5 4 Norte 9 Norte 0 937.5 2.3 89
2019-12-05 09:00:00 0.7 5 Norte 14 Nordeste 0 936.5 2.1 90
2019-12-05 08:00:00 -1 2 Norte 5 Norte 0 935.7 1.3 90
2019-12-05 07:00:00 0 2 Nordeste 20 Noroeste 0 935.2 0.6 88
2019-12-05 06:00:00 0.8 8 Noroeste 16 Noroeste 0 934.4 0.4 89
2019-12-05 05:00:00 -0.7 3 Noroeste 8 Noroeste 0 934.4 1.2 90
2019-12-05 04:00:00 -0.1 2 Noroeste 5 Noroeste 0 934.6 1.3 90
2019-12-05 03:00:00 0.6 3 Este 8 Sudeste 0 934 1.3 87
2019-12-05 02:00:00 0.1 3 Norte 6 Noroeste 0 933.2 1.3 90
2019-12-05 01:00:00 0.4 2 Norte 6 Este 0 933.3 2.1 88
2019-12-05 00:00:00 2.1 2 Este 8 Este 0 932.7 1.4 86
2019-12-04 23:00:00 3.4 2 Sur 15 Noroeste 0 931.9 1.1 80
2019-12-04 22:00:00 4.5 5 Norte 19 Norte 0 931.2 1.1 79
2019-12-04 21:00:00 4.6 6 Norte 19 Norte 0 931.3 1.7 82
2019-12-04 20:00:00 4.4 4 Noroeste 17 Norte 0 930.8 1.6 81
2019-12-04 19:00:00 6.1 4 Norte 18 Norte 0 930.1 1 76
2019-12-04 18:00:00 8.3 6 Norte 14 Este 0 929.6 0.4 70
2019-12-04 17:00:00 9.9 7 Norte 16 Norte 0 929.2 0 67
2019-12-04 16:00:00 11.1 10 Norte 21 Nordeste 0 929.1 -0.8 59
2019-12-04 15:00:00 10.5 11 Nordeste 26 Norte 0 929.2 -1.1 62
2019-12-04 14:00:00 10 13 Norte 24 Norte 0 929.2 -1.4 62
2019-12-04 13:00:00 7.9 9 Norte 22 Norte 0 929.9 -0.7 69
2019-12-04 12:00:00 6.5 11 Norte 19 Norte -- 930.3 0 71
2019-12-04 11:00:00 4.2 11 Norte 27 Norte 0 930.6 0.7 74
2019-12-04 10:00:00 2.3 9 Norte 20 Norte 0 930.6 0.5 81
2019-12-04 09:00:00 -0.3 5 Norte 15 Norte 0 930.3 0 88
2019-12-04 08:00:00 -0.5 8 Norte 15 Noroeste 0 929.9 -0.8 88
2019-12-04 07:00:00 -0.6 5 Norte 19 Norte 0 930.1 -0.8 87
2019-12-04 06:00:00 -0.8 9 Norte 23 Noroeste 0 930.3 -1 88
2019-12-04 05:00:00 -1.1 8 Noroeste 17 Noroeste 0 930.7 -1.2 88
2019-12-04 04:00:00 -0.9 7 Norte 21 Norte 0 930.9 -1.7 87
2019-12-04 03:00:00 -0.3 8 Norte 16 Norte 0 931.3 -1.3 86
2019-12-04 02:00:00 0.3 7 Norte 16 Norte 0 931.9 -0.7 88
2019-12-04 01:00:00 -0.3 8 Norte 22 Norte 0 932.6 -0.1 87
2019-12-04 00:00:00 -0.2 8 Norte 19 Nordeste 0 932.6 -0.2 87
2019-12-03 23:00:00 0.4 8 Norte 16 Norte 0 932.6 0.1 86
2019-12-03 22:00:00 0.6 7 Norte 17 Nordeste 0 932.7 0.5 85
2019-12-03 21:00:00 1.7 8 Nordeste 19 Nordeste 0 932.8 0.8 80
2019-12-03 20:00:00 1.9 4 Nordeste 15 Norte 0 932.5 0.4 80
2019-12-03 19:00:00 2.7 5 Nordeste 14 Este 0 932.2 -0.1 77
2019-12-03 18:00:00 3.8 6 Este 27 Este 0 932 -0.6 73
2019-12-03 17:00:00 5.5 12 Este 32 Este 0 932.1 -1.3 64
2019-12-03 16:00:00 6.2 12 Este 33 Sudeste 0 932.3 -1.8 63
2019-12-03 15:00:00 6 12 Este 33 Este 0 932.6 -2.7 66
2019-12-03 14:00:00 6 16 Este 34 Nordeste 0 933.4 -2.5 64
2019-12-03 13:00:00 5.4 11 Nordeste 24 Nordeste 0 934.1 -1.8 68
2019-12-03 12:00:00 4.5 11 Nordeste 27 Nordeste 0 935.3 -0.7 71
2019-12-03 11:00:00 3.6 10 Nordeste 20 Nordeste 0 935.9 -0.2 71
2019-12-03 10:00:00 0.9 5 Nordeste 15 Norte 0 935.9 -0.2 84
2019-12-03 09:00:00 -0.7 8 Norte 15 Norte 0 936 -0.2 89
2019-12-03 08:00:00 -1.4 8 Norte 13 Norte 0 936.1 -0.3 89
2019-12-03 07:00:00 -1.1 5 Norte 16 Norte 0 936.1 -0.7 89
2019-12-03 06:00:00 -0.9 7 Norte 19 Norte 0 936.2 -0.9 90
2019-12-03 05:00:00 -1 3 Norte 17 Norte 0 936.4 -0.9 88
2019-12-03 04:00:00 -0.9 5 Norte 12 Norte 0 936.8 -1.1 87
2019-12-03 03:00:00 -0.4 7 Norte 12 Nordeste 0 937.1 -1.1 86
2019-12-03 02:00:00 0.7 5 Norte 18 Nordeste 0 937.3 -1.1 82
2019-12-03 01:00:00 1.6 8 Nordeste 15 Nordeste 0 937.9 -0.5 80
2019-12-03 00:00:00 2.1 7 Este 17 Nordeste 0 938.2 -0.1 79
2019-12-02 23:00:00 2.2 9 Nordeste 24 Nordeste 0 938.4 0.7 78
2019-12-02 22:00:00 2.7 10 Este 33 Este 0 938.4 1.2 76
2019-12-02 21:00:00 3.6 14 Este 34 Este 0 938.3 1.8 74
2019-12-02 20:00:00 4.2 19 Este 37 Este 0 937.7 1.7 74
2019-12-02 19:00:00 5 17 Este 44 Este 0 937.2 1.6 74
2019-12-02 18:00:00 6.6 19 Este 46 Nordeste 0 936.5 1.2 72
2019-12-02 17:00:00 8.5 18 Este 39 Este 0 936 0.3 67
2019-12-02 16:00:00 9.6 21 Este 41 Este 0 935.6 -0.3 64
2019-12-02 15:00:00 10.6 17 Este 34 Nordeste 0 935.3 -1.2 63
2019-12-02 14:00:00 9.7 10 Nordeste 30 Este 0 935.7 -1.2 60
2019-12-02 13:00:00 9.6 16 Nordeste 32 Nordeste 0 935.9 -0.1 61
2019-12-02 12:00:00 9.2 18 Nordeste 35 Nordeste 0 936.5 0.7 63
2019-12-02 11:00:00 7.6 10 Nordeste 25 Nordeste 0 936.9 1.6 72
2019-12-02 10:00:00 5.4 13 Norte 24 Nordeste 0 936 1.4 76
2019-12-02 09:00:00 2.4 11 Norte 19 Norte 0 935.8 1.7 85
2019-12-02 08:00:00 1.8 8 Norte 17 Norte 0 935.3 1.4 86
2019-12-02 07:00:00 1.7 7 Norte 18 Nordeste 0 934.6 0.8 87
2019-12-02 06:00:00 1.1 7 Norte 16 Norte 0 934.1 0.7 90
2019-12-02 05:00:00 1.4 5 Este 14 Norte 0 933.9 0.9 88
2019-12-02 04:00:00 2.4 8 Nordeste 28 Nordeste 0 933.8 0.9 86
2019-12-02 03:00:00 3.2 10 Norte 22 Norte 0 933.4 0.5 85
2019-12-02 02:00:00 3.3 10 Norte 22 Nordeste 0 933 0.3 86
2019-12-02 01:00:00 4.3 9 Norte 16 Norte 0 932.9 0.9 84
2019-12-02 00:00:00 5 8 Nordeste 19 Este 0 932.9 1.3 84
2019-12-01 23:00:00 5.4 6 Nordeste 19 Nordeste 0 932.7 1.4 84
2019-12-01 22:00:00 6.1 9 Norte 24 Nordeste 0 932 1.4 81
2019-12-01 21:00:00 6 10 Norte 19 Norte 0 931.6 1.6 83
2019-12-01 20:00:00 6.3 7 Norte 14 Norte 0 931.3 1.7 86
2019-12-01 19:00:00 6 8 Norte 12 Norte 0 930.6 1.2 88
2019-12-01 18:00:00 6.7 7 Nordeste 19 Nordeste 0 930 1 82
2019-12-01 17:00:00 7.9 9 Nordeste 30 Este 0 929.6 0.9 78
2019-12-01 16:00:00 7.8 14 Nordeste 28 Nordeste 0 929.4 0.8 81
2019-12-01 15:00:00 8.1 15 Nordeste 35 Nordeste 0 929 0.4 82
2019-12-01 14:00:00 8.2 12 Nordeste 28 Nordeste 0 928.7 0.3 86
2019-12-01 13:00:00 8.8 12 Nordeste 24 Nordeste 0 928.6 0.9 77
2019-12-01 12:00:00 7.8 7 Nordeste 13 Nordeste 0 928.6 1.7 87
2019-12-01 11:00:00 7 2 Este 6 Sudeste 0.2 928.4 2 91
2019-12-01 10:00:00 6.7 2 Este 8 Sur 0 927.7 1.5 92
2019-12-01 09:00:00 6.5 6 Sur 18 Sur 0 926.9 0.6 91
2019-12-01 08:00:00 6.5 8 Sur 20 Sur 0.4 926.4 -0.4 91
2019-12-01 07:00:00 6.3 7 Sur 22 Sur 1 926.2 -1.4 90
2019-12-01 06:00:00 6.3 7 Sur 22 Sur 0.2 926.3 -2 89
2019-12-01 05:00:00 6.3 11 Sur 30 Sur 0.4 926.8 -2.2 89
2019-12-01 04:00:00 6.7 11 Sur 29 Sur 0 927.6 -2.1 88
2019-12-01 03:00:00 6.9 10 Sur 24 Sur 0 928.3 -2.2 87
2019-12-01 02:00:00 6.3 6 Sur 19 Sur 0 929 -1.8 87
2019-12-01 01:00:00 6.5 9 Sur 20 Sudoeste 0 929.7 -1.7 85
2019-12-01 00:00:00 6.3 7 Sur 13 Sudeste 0 930.5 -1.1 84
2019-11-30 23:00:00 6 7 Sur 21 Sudoeste 0 930.8 -0.5 81
2019-11-30 22:00:00 6.5 8 Sudoeste 23 Sudoeste 0 931.4 -0.3 77
2019-11-30 21:00:00 7.1 9 Sudoeste 23 Oeste 0 931.6 0.2 73
2019-11-30 20:00:00 8 11 Sudoeste 22 Sudoeste 0 931.3 0.1 72
2019-11-30 19:00:00 7.6 4 Sudeste 20 Sudoeste 0 931.7 0.5 75
2019-11-30 18:00:00 9.3 12 Sudoeste 31 Oeste 0 931.4 0.2 68
2019-11-30 17:00:00 10.8 14 Sudoeste 37 Oeste 0 931.2 -0.6 60
2019-11-30 16:00:00 10.4 13 Oeste 37 Sudoeste 0 931.2 -0.4 60
2019-11-30 15:00:00 10.6 10 Sudoeste 31 Oeste 0 931.2 -1 72
2019-11-30 14:00:00 10.8 19 Oeste 44 Oeste 0.2 931.8 -0.2 79
2019-11-30 13:00:00 12.7 17 Oeste 39 Sudoeste 0 931.6 -0.5 71
2019-11-30 12:00:00 11.8 12 Oeste 42 Oeste 8.2 932.2 -0.2 86
2019-11-30 11:00:00 12.2 7 Oeste 34 Sudoeste 0.4 932 -0.6 92
2019-11-30 10:00:00 12 14 Sudoeste 30 Sur 0 932.1 -0.8 92
2019-11-30 09:00:00 11.8 14 Sur 29 Sur 0.2 932.4 -0.8 92
2019-11-30 08:00:00 11.6 14 Sur 33 Sudoeste 0 932.6 -1.3 92
2019-11-30 07:00:00 11.5 17 Sur 35 Sudoeste 0.2 932.9 -1.8 92
2019-11-30 06:00:00 11.7 15 Sur 35 Sudoeste 0 933.2 -1.7 90
2019-11-30 05:00:00 11.9 13 Sur 28 Sur 0.2 933.9 -1.2 88
2019-11-30 04:00:00 12 11 Sur 32 Sudoeste 0 934.7 -0.9 90
2019-11-30 03:00:00 12.2 12 Sudoeste 29 Sudoeste 0 934.9 -1.2 89
2019-11-30 02:00:00 12 11 Sudoeste 30 Sur 0.2 935.1 -1.5 93
2019-11-30 01:00:00 10.8 4 Sur 11 Sur 0 935.6 -1.2 92
2019-11-30 00:00:00 11 5 Sur 14 Oeste 0 936.1 -0.6 91
2019-11-29 23:00:00 11.3 5 Sudoeste 13 Sudoeste 0.2 936.6 0 90
2019-11-29 22:00:00 11.8 7 Sudoeste 16 Sudoeste 0 936.8 0.2 88
2019-11-29 21:00:00 11.8 7 Sudoeste 18 Sudoeste 0 936.7 0.3 85
2019-11-29 20:00:00 11.6 7 Sudoeste 13 Sudoeste 0 936.6 0.3 82
2019-11-29 19:00:00 12.1 8 Sudoeste 15 Sudoeste 0 936.6 0.4 79
2019-11-29 18:00:00 11.9 2 Noroeste 22 Sudoeste 0 936.4 -0.1 75
2019-11-29 17:00:00 13.8 10 Sudoeste 27 Sudoeste 0 936.3 -0.4 70
2019-11-29 16:00:00 15.9 9 Sur 18 Sudoeste 0 936.2 -1.1 58
2019-11-29 15:00:00 15 7 Sur 14 Sur 0 936.5 -1.1 67
2019-11-29 14:00:00 13.5 4 Oeste 10 Oeste 0 936.7 -0.7 70
2019-11-29 13:00:00 12.5 3 Sudoeste 9 Sur 0 937.3 0.7 77
2019-11-29 12:00:00 11.9 5 Sur 10 Sur 0 937.6 1.3 81
2019-11-29 11:00:00 10.4 0 Calma 6 Oeste 0 937.4 1.6 88
2019-11-29 10:00:00 9.3 4 Norte 9 Sur 0 936.6 1.6 92
2019-11-29 09:00:00 8.5 4 Sur 7 Sur 0 936.3 2.1 92
2019-11-29 08:00:00 9 5 Oeste 11 Oeste 0 935.8 2.1 92
2019-11-29 07:00:00 9 4 Sudeste 12 Oeste 0 935 1.3 91
2019-11-29 06:00:00 9.9 5 Oeste 13 Oeste 0 934.2 0.9 90
2019-11-29 05:00:00 10.3 7 Oeste 14 Oeste 0 933.7 0.8 90
2019-11-29 04:00:00 10.4 7 Sudoeste 12 Sudoeste 0 933.7 0.8 92
2019-11-29 03:00:00 10.3 3 Nordeste 11 Oeste 0 933.3 0.9 90
2019-11-29 02:00:00 11.1 6 Sudoeste 18 Sudoeste 0 932.9 0.9 91
2019-11-29 01:00:00 10.8 6 Sudoeste 13 Sudoeste 0 932.9 1.7 91
2019-11-29 00:00:00 11.3 9 Sudoeste 17 Sudoeste 0 932.4 1.7 89
2019-11-28 23:00:00 11.4 8 Sudoeste 19 Sudoeste 0.2 932 1.9 90
2019-11-28 22:00:00 11.3 8 Sudoeste 17 Sudoeste 0.2 931.2 1.3 90
2019-11-28 21:00:00 11.2 10 Sudoeste 23 Sudoeste 0 930.7 0.9 90
2019-11-28 20:00:00 11 12 Sudoeste 27 Sudoeste 0.2 930.1 0.2 90
2019-11-28 19:00:00 10.9 12 Sudoeste 35 Sur 0.2 929.9 0.3 90
2019-11-28 18:00:00 11.2 14 Sudoeste 26 Sudoeste 0 929.8 0.5 89
2019-11-28 17:00:00 11.6 13 Sudoeste 39 Sudoeste 0 929.9 -0.2 84
2019-11-28 16:00:00 12.5 19 Sudoeste 50 Sudoeste 0 929.6 -1.2 76
2019-11-28 15:00:00 13.6 22 Sudoeste 46 Sudoeste 0 929.3 -2.1 67
2019-11-28 14:00:00 12.6 13 Sudoeste 31 Sudoeste 0 930.1 -1.4 78
2019-11-28 13:00:00 11.8 13 Sudoeste 34 Sudoeste 0 930.8 0 82
2019-11-28 12:00:00 11.4 17 Sudoeste 45 Sudoeste 0 931.4 0.5 85
2019-11-28 11:00:00 11.5 15 Sudoeste 36 Sudoeste 0 931.5 1.2 83
2019-11-28 10:00:00 10.8 18 Sudoeste 36 Sudoeste 0 930.8 0.9 86
2019-11-28 09:00:00 10.1 11 Sur 35 Sudoeste 0 930.9 1.2 89
2019-11-28 08:00:00 10.1 11 Sudoeste 25 Sudoeste 0 930.3 1 89
2019-11-28 07:00:00 10 14 Sudoeste 31 Sudoeste 0 929.9 0.3 89
2019-11-28 06:00:00 9.8 17 Sudoeste 30 Sudoeste 0 929.7 0 89
2019-11-28 05:00:00 9.6 13 Sudoeste 28 Sudoeste 0 929.3 -0.4 89
2019-11-28 04:00:00 9.5 9 Sur 21 Sur 0 929.6 -0.1 89
2019-11-28 03:00:00 9.9 12 Sudoeste 22 Sudoeste 0 929.7 0.1 85
2019-11-28 02:00:00 9.8 12 Sudoeste 28 Sudoeste 0 929.7 -0.1 84
2019-11-28 01:00:00 9.8 14 Sudoeste 29 Sudoeste 0.2 929.7 0.3 83
2019-11-28 00:00:00 9.2 15 Sudoeste 28 Sudoeste 0 929.6 0.6 86
2019-11-27 23:00:00 9.3 13 Sudoeste 31 Sudoeste 0 929.8 0.8 85
2019-11-27 22:00:00 9.4 13 Sudoeste 24 Sudoeste 0.2 929.4 1 83
2019-11-27 21:00:00 9.4 13 Sudoeste 32 Sudoeste 0 929 1.1 81
2019-11-27 20:00:00 9.5 10 Sudoeste 40 Sudoeste 0.2 929 1.3 80
2019-11-27 19:00:00 9.7 11 Sudoeste 38 Sudoeste 0 928.4 1.3 78
2019-11-27 18:00:00 10 19 Sudoeste 36 Sudoeste 0.2 927.9 0.8 78
2019-11-27 17:00:00 10.2 10 Sudoeste 28 Sudoeste 0 927.7 0.2 83
2019-11-27 16:00:00 10.3 12 Sudoeste 27 Sudoeste 0.2 927.1 -0.8 85
2019-11-27 15:00:00 10.1 10 Sudoeste 30 Sudoeste 0 927.1 -1.5 86
2019-11-27 14:00:00 10.3 19 Sudoeste 38 Sudoeste 0 927.5 -1.2 82
2019-11-27 06:00:00 8.2 10 Sudoeste 30 Sudoeste 0 925.8 0.5 81
2019-11-27 05:00:00 8.5 17 Sudoeste 39 Sudoeste 0 925.5 0.4 78
2019-11-27 04:00:00 8.5 18 Sudoeste 39 Sudoeste 0 925.6 0.8 78
2019-11-27 03:00:00 8.3 13 Sudoeste 28 Sudoeste 0 925.3 1.1 79
2019-11-27 02:00:00 8.5 6 Oeste 30 Oeste 0 925.1 0.8 77
2019-11-27 01:00:00 9.1 14 Sudoeste 32 Sudoeste 0 924.8 0.9 80
2019-11-27 00:00:00 9.7 17 Sudoeste 38 Sudoeste 0.2 924.2 0.7 78
2019-11-26 23:00:00 9.9 17 Sudoeste 33 Sudoeste 0.2 924.3 1.2 77
2019-11-26 22:00:00 10 13 Sudoeste 42 Sudoeste 0 923.9 1.8 82
2019-11-26 21:00:00 10.2 18 Sudoeste 53 Oeste 0.2 923.5 2.4 81
2019-11-26 20:00:00 11.2 17 Sudoeste 48 Sudoeste 0.2 923.1 1.5 81
2019-11-26 19:00:00 12.8 22 Sudoeste 55 Sudoeste 0.2 922.1 -0.4 68
2019-11-26 18:00:00 13.3 24 Sudoeste 56 Sudoeste 0.2 921.1 -2.2 68
2019-11-26 17:00:00 14.2 24 Sudoeste 52 Sudoeste 0.4 921.6 -2.8 66
2019-11-26 16:00:00 14.4 19 Sudoeste 44 Sudoeste 0.4 922.5 -3.2 77
2019-11-26 15:00:00 13.4 6 Oeste 18 Sudoeste 0.4 923.3 -3.3 88
2019-11-26 14:00:00 12.7 9 Oeste 37 Sudoeste 0.2 924.4 -2.7 89
2019-11-26 13:00:00 12.8 10 Sudoeste 26 Sudoeste 0.4 925.7 -1.5 89
2019-11-26 12:00:00 12.7 12 Sudoeste 31 Sudoeste 0.2 926.6 -1.1 91
2019-11-26 11:00:00 12.2 14 Sudoeste 43 Sudoeste 0.2 927.1 -0.8 92
2019-11-26 10:00:00 12 12 Sudoeste 31 Sudoeste 0.2 927.2 -0.9 92
2019-11-26 09:00:00 11.2 8 Sur 23 Sur 0.2 927.7 -0.9 93
2019-11-26 08:00:00 10.5 8 Sur 18 Sudoeste 0.2 927.9 -1.1 92
2019-11-26 07:00:00 10.4 9 Sudoeste 21 Sudoeste 0 928.1 -2 92
2019-11-26 06:00:00 9.8 6 Sur 14 Sur 0 928.6 -1.7 91
2019-11-26 05:00:00 10.1 5 Sur 17 Sudoeste 0 929 -1.6 89
2019-11-26 04:00:00 10.5 4 Sur 22 Sudoeste 0 930.1 -0.8 87
2019-11-26 03:00:00 10.4 8 Sur 22 Sur 0 930.3 -1 87
2019-11-26 02:00:00 10.3 13 Sudoeste 23 Sudoeste 0 930.6 -1.2 87
2019-11-26 01:00:00 9.9 11 Sudoeste 27 Sudoeste 0 930.9 -1.1 86
2019-11-26 00:00:00 10 14 Sudoeste 26 Sudoeste 0 931.3 -0.6 85
2019-11-25 23:00:00 9.7 8 Sur 22 Sudeste 0 931.8 -0.3 83
2019-11-25 22:00:00 10.3 9 Sur 21 Sudoeste 0 932 0.4 80
2019-11-25 21:00:00 10.9 13 Sudoeste 27 Oeste 0 931.9 0.7 78
2019-11-25 20:00:00 11 11 Sudoeste 23 Sudoeste 0 932.1 1.1 77
2019-11-25 19:00:00 11.5 13 Sudoeste 23 Sudoeste 0 931.6 0.8 76
2019-11-25 18:00:00 11.9 10 Sudoeste 24 Sudoeste 0 931.2 0.7 74
2019-11-25 17:00:00 12.6 10 Sudoeste 25 Sur 0 931 0.6 69
2019-11-25 16:00:00 13.1 13 Sudoeste 31 Sudoeste 0 930.8 0.2 66
2019-11-25 15:00:00 13.7 13 Sudoeste 38 Oeste 0 930.5 -0.7 62
2019-11-25 14:00:00 13.8 13 Oeste 34 Sudoeste 0 930.4 -0.4 60
2019-11-25 13:00:00 13.8 16 Oeste 37 Oeste 0 930.6 0.3 64
2019-11-25 12:00:00 13.5 14 Sudoeste 29 Oeste 0 931.2 1.6 63
2019-11-25 11:00:00 12.4 11 Sudoeste 24 Sudoeste 0 930.8 1.8 73
2019-11-25 10:00:00 11.1 12 Sudoeste 25 Sudoeste 0 930.3 1.4 82
2019-11-25 09:00:00 9.4 8 Sudoeste 24 Sudoeste 0 929.6 1.3 89
2019-11-25 08:00:00 9.5 10 Sudoeste 25 Sudoeste 0 929 0.9 92
2019-11-25 07:00:00 9.8 10 Sur 26 Sudoeste 0 928.9 1 89
2019-11-25 06:00:00 9.5 8 Sudoeste 27 Sudoeste 0 928.3 0.7 88
2019-11-25 05:00:00 10 10 Sudoeste 23 Sudoeste 0 928.1 0.7 85
2019-11-25 04:00:00 10.6 10 Sudoeste 32 Sudoeste 0 927.9 0.3 84
2019-11-25 03:00:00 10.4 9 Sudoeste 22 Sudoeste 0 927.6 0.1 87
2019-11-25 02:00:00 10 9 Sudoeste 24 Sudoeste 0 927.4 -0.5 88
2019-11-25 01:00:00 9.6 8 Sudoeste 15 Sudoeste 0 927.6 -0.8 93
2019-11-25 00:00:00 9.2 6 Sur 13 Este 0.2 927.5 -1 93
2019-11-24 23:00:00 8.8 5 Sur 13 Sur 1 927.9 -0.5 92
2019-11-24 22:00:00 8.7 5 Sur 15 Sur 0.4 928.4 -0.9 92
2019-11-24 21:00:00 8.7 6 Sur 28 Sur 0.4 928.5 -1.1 90
2019-11-24 20:00:00 8.9 14 Sudoeste 32 Sudoeste 0 928.4 -1.5 88
2019-11-24 19:00:00 8.9 15 Sudoeste 28 Sudoeste 0 929.3 -0.8 86
2019-11-24 18:00:00 9 10 Sudoeste 23 Sudoeste 0 929.6 -0.7 81
2019-11-24 17:00:00 9 12 Sudoeste 30 Sudoeste 0 929.9 -0.8 76
2019-11-24 16:00:00 9.4 14 Sudoeste 30 Sudoeste 0 930.1 -1 72
2019-11-24 15:00:00 8.4 8 Sur 32 Sudoeste 0 930.3 -1.9 77
2019-11-24 14:00:00 8.4 12 Sudoeste 29 Sudoeste 0 930.7 -1.6 75
2019-11-24 13:00:00 9 15 Sudoeste 29 Sudoeste 0 931.1 -0.7 69
2019-11-24 12:00:00 7.3 9 Sur 18 Sur 0 932.2 0.9 79
2019-11-24 11:00:00 5.9 8 Sudoeste 17 Sudoeste 0 932.3 1.3 84
2019-11-24 10:00:00 4.7 9 Sudoeste 15 Sudoeste 0 931.8 1.4 84
2019-11-24 09:00:00 3.3 5 Sur 10 Sudoeste 0 931.3 0.8 82
2019-11-24 08:00:00 3.7 4 Sudoeste 13 Oeste 0 931 0.6 80
2019-11-24 07:00:00 3.6 8 Oeste 14 Oeste 0 930.4 0.4 81
2019-11-24 06:00:00 3.8 7 Oeste 17 Oeste 0 930.5 1 81
2019-11-24 05:00:00 3.9 6 Oeste 13 Oeste 0 930.4 0.7 82
2019-11-24 04:00:00 4.1 8 Oeste 21 Oeste 0 930 0.6 82
2019-11-24 03:00:00 4 6 Oeste 17 Oeste 0 929.5 0.3 81
2019-11-24 02:00:00 4.7 8 Oeste 18 Oeste 0 929.7 0.8 79
2019-11-24 01:00:00 4 4 Sudoeste 14 Oeste 0 929.4 1.1 80
2019-11-24 00:00:00 4.9 7 Sur 16 Sudoeste 0 929.2 1.4 77
2019-11-23 23:00:00 5.6 6 Oeste 15 Oeste 0 928.9 1.9 76
2019-11-23 22:00:00 6.1 7 Oeste 23 Oeste 0 928.3 2 73
2019-11-23 21:00:00 7 11 Oeste 23 Noroeste 0 927.8 2.3 69
2019-11-23 20:00:00 7.4 8 Noroeste 21 Oeste 0 927 2.4 66
2019-11-23 19:00:00 8.3 11 Noroeste 25 Oeste 0 926.3 2.5 60
2019-11-23 18:00:00 8.9 11 Noroeste 27 Noroeste 0 925.5 2.1 55
2019-11-23 17:00:00 10.7 11 Norte 29 Oeste 0 924.6 1.5 54
2019-11-23 16:00:00 11.6 15 Noroeste 30 Oeste 0 923.8 1.3 47
2019-11-23 15:00:00 10.1 14 Noroeste 37 Noroeste 0 923.4 1.4 52
2019-11-23 14:00:00 10.1 15 Noroeste 33 Noroeste 0 923.1 1.9 53
2019-11-23 13:00:00 10.1 16 Noroeste 36 Noroeste 0 922.5 2.7 53
2019-11-23 12:00:00 10.4 14 Noroeste 45 Oeste 0 922 3.4 53
2019-11-23 11:00:00 9.5 21 Oeste 39 Noroeste 0 921.2 4 52
2019-11-23 10:00:00 6.6 5 Oeste 13 Oeste 0 919.8 4.2 65
2019-11-23 09:00:00 5.2 5 Sudoeste 22 Noroeste 0 918.6 4.3 69
2019-11-23 08:00:00 5.1 8 Oeste 23 Noroeste 0 917.2 4.2 69
2019-11-23 07:00:00 5.1 10 Oeste 23 Oeste 0 915.6 4.1 71
2019-11-23 06:00:00 4.9 8 Oeste 19 Oeste 0 914.3 3.3 77
2019-11-23 05:00:00 5.4 12 Oeste 31 Oeste 0 913 3.1 76
2019-11-23 04:00:00 6.1 15 Oeste 39 Oeste 0 911.5 2.4 74
2019-11-23 03:00:00 6.3 13 Oeste 40 Oeste 0.2 911 2.6 73
2019-11-23 02:00:00 6.5 17 Oeste 45 Oeste 0 909.9 2 72
2019-11-23 01:00:00 6.8 20 Oeste 41 Oeste 0.2 909.1 1.3 73
2019-11-23 00:00:00 7.1 17 Sudoeste 39 Oeste 0.2 908.4 1.3 76
2019-11-22 23:00:00 7.9 19 Sudoeste 44 Sudoeste 0.2 907.9 0.8 76
2019-11-22 22:00:00 8.1 18 Sudoeste 37 Sudoeste 0.2 907.8 0.8 80
2019-11-22 21:00:00 8.3 15 Sudoeste 30 Sudoeste 0.2 907.1 0.3 82
2019-11-22 20:00:00 8.4 16 Sudoeste 42 Sudoeste 0 907.1 0.3 86
2019-11-22 19:00:00 8.3 19 Sudoeste 42 Sudoeste 0.2 907 0.9 82
2019-11-22 18:00:00 9 18 Sudoeste 61 Sudoeste 0.4 906.8 1.1 70
2019-11-22 17:00:00 9.9 17 Sudoeste 54 Sudoeste 0.4 906.8 1.2 69
2019-11-22 16:00:00 12.4 22 Sudoeste 63 Oeste 0.4 906.1 -0.4 59
2019-11-22 15:00:00 12.8 24 Sudoeste 54 Sudoeste 0.4 905.7 -2.3 64
2019-11-22 14:00:00 12.7 24 Sudoeste 66 Sudoeste 0.6 905.6 -2.6 74
2019-11-22 13:00:00 11.4 21 Sudoeste 50 Sudoeste 0.4 906.5 -3.6 87
2019-11-22 12:00:00 10.4 17 Sudoeste 49 Sur 0.2 908 -3.1 87
2019-11-22 11:00:00 9.2 17 Sur 39 Sur 0.2 908.2 -3.8 89
2019-11-22 10:00:00 8.2 18 Sur 40 Sur 0.2 910.1 -4 89
2019-11-22 09:00:00 7.6 22 Sur 46 Sur 0.4 911.1 -4.7 90
2019-11-22 08:00:00 7.1 18 Sur 36 Sur 0.2 912 -5.2 90
2019-11-22 07:00:00 7.1 14 Sur 28 Sur 0.2 914.1 -4.3 91
2019-11-22 06:00:00 7 11 Sur 27 Sur 0.2 915.8 -3.8 90
2019-11-22 05:00:00 6.9 10 Sur 26 Sur 0.2 917.2 -3.1 91
2019-11-22 04:00:00 6.7 6 Sur 15 Sur 0 918.4 -2.8 90
2019-11-22 03:00:00 6.5 7 Sur 17 Sur 0 919.6 -2.3 89
2019-11-22 02:00:00 6.4 8 Sur 17 Sur 0 920.3 -2.1 88
2019-11-22 01:00:00 5.6 8 Sur 15 Sur 0 921.2 -1.5 88
2019-11-22 00:00:00 5.9 5 Sur 12 Sur 0 921.9 -1.1 86
2019-11-21 23:00:00 5.9 4 Sur 13 Sudoeste 0 922.4 -1 82
2019-11-21 22:00:00 6 4 Sur 10 Sur 0 922.7 -0.5 79
2019-11-21 21:00:00 6 4 Sudoeste 9 Sudoeste 0 923 0.1 77
2019-11-21 20:00:00 6.3 3 Sudoeste 11 Sur 0 923.4 0.6 74
2019-11-21 19:00:00 7.4 6 Sudoeste 14 Sudoeste 0 923.2 0.4 70
2019-11-21 18:00:00 9 9 Sudoeste 19 Sudoeste 0 922.9 0 59
2019-11-21 17:00:00 10.5 8 Oeste 29 Sudoeste 0 922.8 -0.3 49
2019-11-21 16:00:00 11 11 Sudoeste 31 Oeste 0 922.8 -0.8 48
2019-11-21 15:00:00 10.9 17 Sudoeste 35 Sudoeste 0 922.9 -1.1 46
2019-11-21 14:00:00 10.7 14 Oeste 32 Sudoeste 0 923.1 -0.7 50
2019-11-21 13:00:00 9.8 15 Oeste 30 Sudoeste 0 923.6 0 53
2019-11-21 12:00:00 9.1 13 Oeste 28 Oeste 0 924 0.5 59
2019-11-21 11:00:00 8.1 10 Oeste 24 Oeste 0 923.8 0.9 73
2019-11-21 10:00:00 6.8 9 Oeste 16 Oeste 0 923.6 1.1 85
2019-11-21 09:00:00 5.8 4 Sudoeste 14 Sudoeste 0 923.5 1.2 90
2019-11-21 08:00:00 -- -- -- -- -- -- -- -- --
2019-11-21 07:00:00 -- -- -- -- -- -- -- -- --
2019-11-21 06:00:00 -- -- -- -- -- -- -- -- --
2019-11-21 05:00:00 -- -- -- -- -- -- -- -- --
2019-11-21 04:00:00 -- -- -- -- -- -- -- -- --
2019-11-21 03:00:00 -- -- -- -- -- -- -- -- --
2019-11-21 02:00:00 -- -- -- -- -- -- -- -- --
2019-11-21 01:00:00 -- -- -- -- -- -- -- -- --
2019-11-21 00:00:00 -- -- -- -- -- -- -- -- --
2019-11-20 23:00:00 -- -- -- -- -- -- -- -- --
2019-11-20 22:00:00 -- -- -- -- -- -- -- -- --
2019-11-20 21:00:00 -- -- -- -- -- -- -- -- --
2019-11-20 20:00:00 -- -- -- -- -- -- -- -- --
2019-11-20 19:00:00 6.7 6 Sudoeste 19 Sudoeste 0 923.1 -0.4 87
2019-11-20 18:00:00 6.9 7 Sur 17 Sudoeste 0.2 922.9 -0.7 88
2019-11-20 17:00:00 6.9 9 Sur 27 Sudoeste 0.2 923.1 -1.2 88
2019-11-20 16:00:00 6.6 14 Sudoeste 26 Sudoeste 0.2 923.5 -1.4 89
2019-11-20 15:00:00 6.6 8 Sudoeste 23 Sur 0.2 923.6 -1.8 91
2019-11-20 14:00:00 6.3 9 Sudoeste 27 Sudoeste 0.2 924.3 -1.5 90
2019-11-20 13:00:00 6.3 13 Sudoeste 26 Sudoeste 0.4 924.9 -1 90
2019-11-20 12:00:00 6.4 10 Sur 22 Sudoeste 0.4 925.4 -0.5 90
2019-11-20 11:00:00 6.3 10 Sur 21 Sur 0.8 925.8 -0.4 91
2019-11-20 10:00:00 5.8 8 Sur 16 Sur 0.8 925.9 -0.5 92
2019-11-20 09:00:00 5.4 6 Sur 14 Sudeste 0.4 925.9 -0.7 92
2019-11-20 08:00:00 5.3 7 Sur 14 Sur 0 926.2 -0.9 91
2019-11-20 07:00:00 5.3 4 Sur 14 Sudeste 0.2 926.4 -1.3 91
2019-11-20 06:00:00 5.4 5 Sur 13 Sur 0 926.6 -1.8 91
2019-11-20 05:00:00 5.5 6 Sur 15 Sur 0 927.1 -1.7 91
2019-11-20 04:00:00 5.5 4 Sur 13 Sudeste 0 927.7 -1.9 91
2019-11-20 03:00:00 5.7 0 Calma 8 Sudeste 0 928.4 -1.6 91
2019-11-20 02:00:00 5.8 2 Sur 6 Sudoeste 0.2 928.8 -1.6 89
2019-11-20 01:00:00 6.1 5 Oeste 10 Oeste 0 929.6 -1 87
2019-11-20 00:00:00 6.3 5 Sudoeste 11 Sudoeste 0 930 -0.7 83
2019-11-19 23:00:00 6.5 3 Sudoeste 8 Sur 0 930.4 -0.5 79
2019-11-19 22:00:00 6.7 3 Sur 9 Sur 0 930.6 -0.3 78
2019-11-19 21:00:00 6.9 4 Sudoeste 8 Sudoeste 0 930.7 -0.3 76
2019-11-19 20:00:00 7 4 Sur 9 Sur 0 930.9 -0.3 76
2019-11-19 19:00:00 7.1 5 Sur 10 Sur 0 930.9 -0.6 75
2019-11-19 18:00:00 7.2 5 Sur 11 Sur 0 931 -1.1 73
2019-11-19 17:00:00 7.6 6 Sur 14 Sur 0 931.2 -1.6 70
2019-11-19 16:00:00 7.8 6 Sur 13 Sur 0 931.5 -2.1 68
2019-11-19 15:00:00 7.7 6 Sudoeste 14 Sur 0 932.1 -2.2 67
2019-11-19 14:00:00 6.6 4 Sudeste 11 Sur 0 932.8 -1.8 70
2019-11-19 13:00:00 5.7 5 Sur 10 Sur 0 933.6 -1.3 72
2019-11-19 12:00:00 3.9 4 Sudeste 9 Sudeste 0 934.3 -0.5 79
2019-11-19 11:00:00 2.4 0 Calma 13 Nordeste 0 934.6 0.1 82
2019-11-19 10:00:00 0.1 4 Noroeste 15 Noroeste 0 934.9 0.4 89
2019-11-19 09:00:00 -1.2 4 Noroeste 9 Noroeste 0 934.8 0.3 92
2019-11-19 08:00:00 -1.7 0 Calma 14 Nordeste 0 934.5 -0.1 90
2019-11-19 07:00:00 -1 0 Calma 14 Oeste 0 934.5 -0.4 91
2019-11-19 06:00:00 -1 4 Norte 9 Noroeste 0 934.5 -0.3 91
2019-11-19 05:00:00 -1.1 2 Noroeste 5 Nordeste 0 934.6 -0.5 90
2019-11-19 04:00:00 -0.1 3 Norte 10 Nordeste 0 934.9 -0.4 90
2019-11-19 03:00:00 -0.8 4 Noroeste 15 Norte 0 934.8 -0.5 90
2019-11-19 02:00:00 0.1 0 Calma 11 Noroeste 0 935.1 -0.5 87
2019-11-19 01:00:00 1.5 3 Oeste 8 Sudoeste 0 935.3 -0.5 88
2019-11-19 00:00:00 0.7 3 Noroeste 13 Este 0 935.3 -0.1 86
2019-11-18 23:00:00 1.8 4 Norte 18 Nordeste 0 935.6 0.5 84
2019-11-18 22:00:00 3.8 6 Norte 19 Nordeste 0 935.8 1.4 76
2019-11-18 21:00:00 4 4 Norte 10 Norte 0 935.4 1.3 75
2019-11-18 20:00:00 4.2 3 Norte 11 Norte 0 935.1 1.3 72
2019-11-18 19:00:00 6.3 7 Norte 18 Norte 0 934.4 0.8 64
2019-11-18 18:00:00 7.9 7 Noroeste 23 Norte 0 934.1 0.9 58
2019-11-18 17:00:00 10.6 12 Noroeste 30 Noroeste 0 933.8 0.5 48
2019-11-18 16:00:00 11 12 Norte 27 Norte 0 933.6 0.3 48
2019-11-18 15:00:00 11 14 Norte 37 Nordeste 0 933.2 -0.4 49
2019-11-18 14:00:00 11 16 Norte 30 Norte 0 933.3 -0.4 46
2019-11-18 13:00:00 10.7 17 Norte 36 Norte 0 933.3 -0.2 47
2019-11-18 12:00:00 9.3 15 Norte 35 Norte 0 933.6 0.6 57
2019-11-18 11:00:00 7.6 15 Noroeste 35 Noroeste 0 933.7 1.3 65
2019-11-18 10:00:00 5.8 11 Noroeste 26 Noroeste 0 933.5 1.8 72
2019-11-18 09:00:00 3 11 Noroeste 24 Noroeste 0 933 1.9 79
2019-11-18 08:00:00 2.9 12 Noroeste 23 Noroeste 0 932.4 1.9 78
2019-11-18 07:00:00 3.1 10 Noroeste 24 Noroeste 0 931.7 1.8 78
2019-11-18 06:00:00 2.7 12 Noroeste 26 Noroeste 0 931.1 1.3 81
2019-11-18 05:00:00 2.8 16 Noroeste 33 Noroeste 0 930.5 1 81
2019-11-18 04:00:00 3.3 14 Noroeste 28 Noroeste 0 929.9 0.5 80
2019-11-18 03:00:00 3.6 13 Noroeste 24 Noroeste 0 929.8 0.8 78
2019-11-18 02:00:00 3.9 13 Noroeste 27 Noroeste 0 929.5 0.7 77
2019-11-18 01:00:00 4.1 11 Noroeste 22 Noroeste 0 929.4 1.1 77
2019-11-18 00:00:00 4.7 10 Noroeste 28 Oeste 0 929 0.7 75
2019-11-17 23:00:00 4.8 10 Noroeste 20 Oeste 0 928.8 0.8 74
2019-11-17 22:00:00 4.6 6 Oeste 14 Oeste 0 928.3 0.7 72
2019-11-17 21:00:00 5.3 7 Noroeste 20 Oeste 0 928.3 0.9 68
2019-11-17 20:00:00 6 6 Oeste 29 Noroeste 0 928 1.1 64
2019-11-17 19:00:00 6.5 15 Noroeste 31 Noroeste 0 927.6 0.7 62
2019-11-17 18:00:00 7.5 14 Noroeste 34 Noroeste 0 927.4 0.5 65
2019-11-17 17:00:00 10.5 9 Noroeste 42 Norte 0 926.9 -0.5 58
2019-11-17 16:00:00 11.5 20 Noroeste 39 Noroeste 0 926.9 -0.9 56
2019-11-17 15:00:00 10.8 12 Oeste 28 Oeste 0 926.9 -1.5 63
2019-11-17 14:00:00 10.6 12 Oeste 32 Oeste 0 927.4 -1.5 74
2019-11-17 13:00:00 11.3 13 Oeste 31 Sudoeste 0.2 927.8 -1.4 69
2019-11-17 12:00:00 9.2 12 Sudoeste 28 Oeste 0.2 928.4 -1 79
2019-11-17 11:00:00 6.9 7 Sudoeste 20 Sur 0.2 928.9 -0.3 89
2019-11-17 10:00:00 5.6 5 Sudoeste 13 Este 0.2 929.2 -0.3 90
2019-11-17 09:00:00 5.1 7 Sudoeste 14 Sudoeste 0 929.4 -0.5 89
2019-11-17 08:00:00 4.6 8 Sudoeste 20 Sudoeste 0 929.2 -1.3 89
2019-11-17 07:00:00 4.2 7 Sur 18 Sudoeste 0 929.5 -1.2 87
2019-11-17 06:00:00 4.5 7 Sudoeste 15 Sudoeste 0 929.9 -1.3 86
2019-11-17 05:00:00 3.2 3 Sudoeste 9 Sudoeste 0 930.5 -1.1 87
2019-11-17 04:00:00 3.7 5 Sudoeste 12 Sudoeste 0 930.7 -1.4 83
2019-11-17 03:00:00 3.5 6 Sudoeste 21 Oeste 0 931.2 -0.8 82
2019-11-17 02:00:00 3.6 7 Oeste 22 Oeste 0 931.6 -0.8 80
2019-11-17 01:00:00 3.9 7 Oeste 19 Sudoeste 0 932.1 -0.4 77
2019-11-17 00:00:00 4.3 8 Sudoeste 18 Sudoeste 0 932 -0.6 74
2019-11-16 23:00:00 5 8 Sudoeste 18 Oeste 0 932.4 -0.5 69
2019-11-16 22:00:00 5.1 9 Oeste 18 Sudoeste 0 932.5 -0.2 64
2019-11-16 21:00:00 4.8 6 Oeste 13 Oeste 0 932.6 0.3 65
2019-11-16 20:00:00 4.7 6 Oeste 15 Noroeste 0 932.9 0.9 66
2019-11-16 19:00:00 4.9 7 Noroeste 19 Noroeste 0 932.7 1.1 69
2019-11-16 18:00:00 6.2 7 Noroeste 20 Noroeste 0 932.3 0.9 57
2019-11-16 17:00:00 8.6 10 Noroeste 26 Noroeste 0 932 0.2 44
2019-11-16 16:00:00 10.3 11 Noroeste 29 Noroeste 0 931.6 -0.4 38
2019-11-16 15:00:00 9 11 Oeste 29 Noroeste 0 931.4 -0.5 44
2019-11-16 14:00:00 8.6 17 Noroeste 41 Oeste 0 931.8 0 46
2019-11-16 13:00:00 8 15 Noroeste 30 Noroeste 0 932 0.5 47
2019-11-16 12:00:00 8.2 13 Noroeste 27 Noroeste 0 931.9 0.8 53
2019-11-16 11:00:00 5.7 8 Oeste 14 Oeste 0 931.8 1.4 65
2019-11-16 10:00:00 3.1 4 Sudoeste 12 Noroeste 0 931.5 1.6 74
2019-11-16 09:00:00 1 7 Noroeste 15 Oeste 0 931.1 1.7 79
2019-11-16 08:00:00 -0.1 7 Oeste 14 Oeste 0 930.4 1.2 84
2019-11-16 07:00:00 -0.9 5 Sur 10 Oeste 0 929.9 1 86
2019-11-16 06:00:00 -0.5 3 Sur 8 Sur 0 929.4 1 85
2019-11-16 05:00:00 0.1 0 Calma 21 Noroeste 0 929.2 1.4 83
2019-11-16 04:00:00 1.5 13 Noroeste 21 Noroeste 0 928.9 1.4 79
2019-11-16 03:00:00 1.3 9 Oeste 19 Noroeste 0 928.4 1 79
2019-11-16 02:00:00 2 9 Noroeste 20 Noroeste 0 927.8 0.9 75
2019-11-16 01:00:00 2.1 10 Noroeste 21 Noroeste 0 927.5 1.4 75
2019-11-16 00:00:00 2.1 8 Noroeste 14 Noroeste 0 927.4 2.1 77
2019-11-15 23:00:00 2.3 6 Oeste 17 Noroeste 0 926.9 2.1 78
2019-11-15 22:00:00 3 11 Noroeste 26 Noroeste 0 926.1 2 75
2019-11-15 21:00:00 3.6 11 Noroeste 23 Noroeste 0 925.3 1.8 72
2019-11-15 20:00:00 4.3 14 Noroeste 33 Noroeste 0.2 924.8 1.5 68
2019-11-15 19:00:00 5.2 14 Noroeste 33 Noroeste 0 924.1 1.1 63
2019-11-15 18:00:00 5.6 8 Noroeste 24 Noroeste 0 923.5 0.6 61
2019-11-15 17:00:00 6.4 10 Oeste 37 Noroeste 0.2 923.3 0.3 57
2019-11-15 16:00:00 7.6 18 Noroeste 40 Noroeste 0.2 923 -0.4 51
2019-11-15 15:00:00 8.6 19 Noroeste 43 Noroeste 0 922.9 -0.8 48
2019-11-15 14:00:00 8.6 20 Noroeste 42 Noroeste 0.2 923 -0.5 48
2019-11-15 13:00:00 8.1 20 Noroeste 50 Noroeste 0.2 923.4 0.1 50
2019-11-15 12:00:00 7.3 15 Oeste 33 Oeste 0.2 923.7 0.7 55
2019-11-15 11:00:00 5.8 16 Oeste 31 Oeste 0.4 923.5 0.8 61
2019-11-15 10:00:00 4.4 10 Oeste 21 Oeste 0.2 923.3 1 70
2019-11-15 09:00:00 3.1 12 Noroeste 24 Noroeste 0.2 923 0.9 75
2019-11-15 08:00:00 2.8 12 Noroeste 27 Noroeste 0.2 922.7 0.8 76
2019-11-15 07:00:00 3 10 Noroeste 19 Noroeste 0.2 922.3 0.7 77
2019-11-15 06:00:00 2.7 10 Noroeste 30 Noroeste 0.4 922.1 0.4 79
2019-11-15 05:00:00 2.3 10 Noroeste 20 Noroeste 0.2 921.9 0.4 80
2019-11-15 04:00:00 3 11 Noroeste 28 Noroeste 0.2 921.6 0.2 78
2019-11-15 03:00:00 2.8 9 Noroeste 21 Noroeste 0.2 921.7 0.7 84
2019-11-15 02:00:00 2.9 12 Noroeste 34 Noroeste 0.2 921.5 0.5 85
2019-11-15 01:00:00 2.9 12 Noroeste 34 Noroeste 0.2 921.4 0.6 85
2019-11-15 00:00:00 2.8 18 Noroeste 51 Noroeste 0.2 921 1 87
2019-11-14 23:00:00 2.2 6 Oeste 37 Noroeste 0.2 921 1.7 90
2019-11-14 22:00:00 3.1 22 Noroeste 42 Noroeste 0 920.8 2 85
2019-11-14 21:00:00 4.1 14 Noroeste 37 Oeste 0 920 2.5 80
2019-11-14 20:00:00 4 22 Noroeste 45 Noroeste 0.2 919.3 2.5 79
2019-11-14 19:00:00 4.6 13 Noroeste 34 Noroeste 0 918.8 2.4 77
2019-11-14 18:00:00 4.7 9 Oeste 25 Noroeste 0.2 917.5 1.6 76
2019-11-14 17:00:00 5.5 10 Noroeste 38 Noroeste 0 916.8 0 78
2019-11-14 16:00:00 3.9 12 Oeste 47 Oeste 0 916.4 -1.2 85
2019-11-14 15:00:00 5.7 16 Sudoeste 38 Oeste 0.2 915.9 -3.1 75
2019-11-14 14:00:00 3.8 15 Oeste 48 Oeste 0 916.8 -2.8 85
2019-11-14 13:00:00 6.8 15 Oeste 43 Sudoeste 0 917.6 -3.5 57
2019-11-14 12:00:00 6.9 16 Oeste 41 Sudoeste 0 919 -2.2 56
2019-11-14 11:00:00 6.1 13 Oeste 37 Oeste 0 919.6 -2.2 59
2019-11-14 10:00:00 4.6 9 Oeste 23 Oeste 0 921.1 -0.7 66
2019-11-14 09:00:00 3.1 11 Sudoeste 23 Sudoeste 0 921.2 -1.3 71
2019-11-14 08:00:00 3.2 6 Oeste 23 Noroeste 0 921.8 -0.1 70
2019-11-14 07:00:00 3.7 14 Noroeste 40 Noroeste 0 921.8 -0.4 65
2019-11-14 06:00:00 5 13 Noroeste 36 Noroeste 0 922.5 0.4 65
2019-11-14 05:00:00 5.2 10 Noroeste 50 Noroeste 0 921.9 -0.6 73
2019-11-14 04:00:00 5.5 21 Noroeste 57 Noroeste 0 922.2 -1 77
2019-11-14 03:00:00 8.3 12 Oeste 33 Sudoeste 0 922.1 -1.9 75
2019-11-14 02:00:00 8.2 17 Sudoeste 43 Sudoeste 0 922.5 -3.3 76
2019-11-14 01:00:00 8.2 21 Sudoeste 46 Sudoeste 0 923.2 -3.7 73
2019-11-14 00:00:00 8.3 24 Sudoeste 50 Sudoeste 0 924 -3.5 67
2019-11-13 23:00:00 7.9 3 Oeste 22 Oeste 0 925.8 -2.7 70
2019-11-13 22:00:00 8 9 Sudoeste 22 Oeste 0 926.9 -1.8 70
2019-11-13 21:00:00 8.5 8 Oeste 26 Oeste 0 927.5 -1 68
2019-11-13 20:00:00 9.5 8 Oeste 22 Oeste 0 928.5 -0.5 68
2019-11-13 19:00:00 10.6 9 Oeste 21 Sudoeste 0 928.7 0.1 63
2019-11-13 18:00:00 12.7 9 Oeste 26 Oeste 0 928.5 -0.5 55
2019-11-13 17:00:00 15 12 Oeste 40 Sudoeste 0.2 929 -0.9 47
2019-11-13 16:00:00 15.6 12 Oeste 30 Sudoeste 0 928.6 -1.7 48
2019-11-13 15:00:00 15.8 11 Sudoeste 29 Oeste 0.2 929 -1.5 47
2019-11-13 14:00:00 14.9 7 Noroeste 17 Oeste 0 929.9 -0.3 51
2019-11-13 13:00:00 14.1 4 Oeste 16 Norte 0.4 930.3 0.3 55
2019-11-13 12:00:00 13.4 6 Noroeste 19 Norte 0.2 930.5 1.7 61
2019-11-13 11:00:00 12.3 12 Noroeste 24 Norte 0.2 930.2 2.6 68
2019-11-13 10:00:00 11.1 8 Norte 21 Norte 0.4 930 3.7 79
2019-11-13 09:00:00 9.2 10 Norte 22 Norte 0.4 928.8 4.1 85
2019-11-13 08:00:00 8.9 9 Norte 19 Norte 0.2 927.6 3.9 86
2019-11-13 07:00:00 10 13 Norte 24 Norte 0.6 926.3 3 83
2019-11-13 06:00:00 10.4 13 Noroeste 26 Noroeste 0.6 924.7 1.5 83
2019-11-13 05:00:00 10.9 9 Oeste 19 Oeste 0.4 923.7 0.7 88
2019-11-13 04:00:00 11.3 8 Oeste 23 Oeste 0.4 923.3 0 89
2019-11-13 03:00:00 11 8 Oeste 24 Sudoeste 0.4 923.2 -1 89
2019-11-13 02:00:00 10.7 7 Oeste 18 Oeste 0.2 923 -1.6 90
2019-11-13 01:00:00 10.4 10 Sudoeste 25 Sudoeste 0.2 923.3 -2.2 90
2019-11-13 00:00:00 10.1 13 Sudoeste 31 Sudoeste 0.2 924.2 -2.1 88
2019-11-12 23:00:00 9.4 14 Sudoeste 27 Sudoeste 0.2 924.6 -3 89
2019-11-12 22:00:00 8.5 13 Sudoeste 29 Sur 0.2 925.5 -2.5 90
2019-11-12 21:00:00 7.9 12 Sudoeste 29 Sudoeste 0.2 926.3 -2.2 91
2019-11-12 20:00:00 8 12 Sudoeste 29 Sudoeste 0.4 927.6 -1.3 89
2019-11-12 19:00:00 8.1 15 Sudoeste 36 Sudoeste 0 928 -1.5 86
2019-11-12 18:00:00 8.8 18 Sudoeste 39 Sudoeste 0 928.5 -2.1 76
2019-11-12 17:00:00 9.6 18 Sudoeste 34 Sudoeste 0 928.9 -2.6 71
2019-11-12 16:00:00 10.8 15 Sudoeste 32 Sudoeste 0 929.5 -3.5 65
2019-11-12 15:00:00 11.1 13 Sudoeste 27 Sudoeste 0 930.6 -3.4 58
2019-11-12 14:00:00 11.4 10 Sudoeste 25 Sur 0 931.5 -3.1 53
2019-11-12 13:00:00 10.8 9 Sudoeste 25 Noroeste 0 933 -1.8 51
2019-11-12 12:00:00 9.9 9 Oeste 19 Noroeste 0 934 -0.3 58
2019-11-12 11:00:00 8.3 4 Sudoeste 12 Sur 0 934.6 0.5 61
2019-11-12 10:00:00 6.5 6 Oeste 15 Oeste 0 934.8 0.2 68
2019-11-12 09:00:00 5.2 7 Oeste 12 Oeste 0 934.3 -0.4 73
2019-11-12 08:00:00 4.9 3 Oeste 8 Sur 0 934.1 -0.5 74
2019-11-12 07:00:00 4.8 4 Sudoeste 6 Sudoeste 0 934.6 -0.4 76
2019-11-12 06:00:00 5.2 0 Calma 18 Este 0 934.7 -0.6 76
2019-11-12 05:00:00 6.2 5 Oeste 12 Oeste 0 934.6 -1 65
2019-11-12 04:00:00 6 8 Noroeste 15 Noroeste 0 935 -1.2 65
2019-11-12 03:00:00 5.6 3 Nordeste 27 Noroeste 0 935.3 -1 70
2019-11-12 02:00:00 6.1 11 Noroeste 24 Noroeste 0 935.6 -1.3 63
2019-11-12 01:00:00 5.6 7 Noroeste 14 Noroeste 0 936.2 -0.3 70
2019-11-12 00:00:00 5 3 Sudoeste 20 Noroeste 0 936.3 0.2 72
2019-11-11 23:00:00 5.2 5 Norte 14 Norte 0 936.9 1.1 72
2019-11-11 22:00:00 4.7 8 Noroeste 12 Noroeste 0 936.5 1.1 71
2019-11-11 21:00:00 6.6 5 Sudeste 25 Norte 0 936.1 0.7 62
2019-11-11 20:00:00 7.4 9 Noroeste 31 Norte 0 935.8 1 60
2019-11-11 19:00:00 8.7 14 Norte 28 Norte 0 935.4 1.2 53
2019-11-11 18:00:00 9.3 9 Norte 29 Nordeste 0 935.4 1.6 51
2019-11-11 17:00:00 11.2 18 Norte 40 Nordeste 0 934.8 1.6 45
2019-11-11 16:00:00 14 17 Norte 34 Norte 0 934.2 0.7 40
2019-11-11 15:00:00 14.8 16 Norte 36 Norte 0 933.8 0.2 38
2019-11-11 14:00:00 14.5 14 Norte 39 Norte 0 933.2 0.2 49
2019-11-11 13:00:00 15.2 20 Noroeste 40 Noroeste 0 933.5 -0.1 48
2019-11-11 12:00:00 13.2 9 Norte 23 Noroeste 0 933.6 0.4 65
2019-11-11 11:00:00 10 6 Oeste 18 Oeste 0 933 -0.1 74
2019-11-11 10:00:00 8.1 6 Oeste 13 Oeste 0 933.6 0.7 80
2019-11-11 09:00:00 7.3 5 Sudoeste 14 Sudoeste 0 933.2 -0.1 84
2019-11-11 08:00:00 6.8 8 Sudoeste 14 Sudoeste 0 933.1 -0.8 85
2019-11-11 07:00:00 6.3 5 Sur 11 Sur 0 932.9 -1.2 84
2019-11-11 06:00:00 6.1 6 Sur 12 Sur 0 933.3 -1.3 84
2019-11-11 05:00:00 5.8 3 Sudeste 8 Sur 0 933.9 -0.9 83
2019-11-11 04:00:00 5.3 4 Sur 8 Sudeste 0 934.1 -0.9 84
2019-11-11 03:00:00 5 0 Calma 5 Sudeste 0 934.6 -1.3 82
2019-11-11 02:00:00 4.6 3 Sudeste 5 Este 0 934.8 -1.2 81
2019-11-11 01:00:00 5.4 3 Sudoeste 19 Oeste 0 935 -0.8 76
2019-11-11 00:00:00 5.9 5 Oeste 10 Oeste 0 935.9 0.4 72